Ceahlau Toaca, Romania
Current Conditions -  °F | °C
As of 3:30 PM on Tuesday 21 Oct 2014 (Local Time) from LRBC Reporting Station
Few Clouds Few Clouds  
Wind Chill: 61°   Ceiling: Unl
Heat Index: 61°   Visibility: 6mi
Dew Point: 52°   Wind: 14mph
Humidity: 72%   Direction: 360°N
Pressure: 29.83"   Gusts: NA
Location:  46.93°N, 25.92°E
Report Text: LRBC 211230Z 36012KT 9999 FEW027 16/11 Q1010
Loading
Personal Weather Stations






























Interactive Weather Map
Tropical Storm Tracking
New forecast layout! Learn more

10-Day Weather Forecast

Advertisements
Track Severe Weather on mobile